createdAt,value
2022-09-30T00:00:58.477Z,0
2022-09-30T00:01:58.986Z,0
2022-09-30T00:03:01.901Z,0
2022-09-30T00:03:58.485Z,0
2022-09-30T00:04:58.488Z,0
2022-09-30T00:05:58.500Z,0
2022-09-30T00:06:58.495Z,0
2022-09-30T00:07:58.472Z,0
2022-09-30T00:08:58.554Z,0
2022-09-30T00:09:58.476Z,0
2022-09-30T00:10:58.469Z,0
2022-09-30T00:11:58.476Z,0
2022-09-30T00:12:58.470Z,0
2022-09-30T00:14:01.251Z,0
2022-09-30T00:14:58.475Z,0
2022-09-30T00:15:58.855Z,0
2022-09-30T00:16:58.468Z,0
2022-09-30T00:17:58.462Z,0
2022-09-30T00:18:58.499Z,0
2022-09-30T00:19:58.497Z,0
2022-09-30T00:20:58.591Z,0
2022-09-30T00:21:58.474Z,0
2022-09-30T00:22:58.477Z,0
2022-09-30T00:23:58.491Z,0
2022-09-30T00:25:01.356Z,0
2022-09-30T00:25:58.492Z,0
2022-09-30T00:26:58.531Z,0
2022-09-30T00:27:58.482Z,0
2022-09-30T00:28:58.490Z,0
2022-09-30T00:30:01.570Z,0
2022-09-30T00:30:58.513Z,0
2022-09-30T00:31:59.052Z,0
2022-09-30T00:32:58.489Z,0
2022-09-30T00:33:58.507Z,0
2022-09-30T00:35:02.476Z,0
2022-09-30T00:36:01.662Z,0
2022-09-30T00:40:13.336Z,0
2022-09-30T00:41:01.783Z,0
2022-09-30T00:41:58.511Z,0
2022-09-30T00:42:58.564Z,0
2022-09-30T00:43:58.558Z,0
2022-09-30T00:44:58.526Z,0
2022-09-30T00:45:59.774Z,0
2022-09-30T00:46:58.568Z,0
2022-09-30T00:47:59.726Z,0
2022-09-30T00:48:58.605Z,0
2022-09-30T00:49:58.521Z,0
2022-09-30T00:50:58.673Z,0
2022-09-30T00:52:01.902Z,0
2022-09-30T00:52:58.529Z,0
2022-09-30T00:53:58.533Z,0
2022-09-30T00:54:58.538Z,0
2022-09-30T00:55:58.597Z,0
2022-09-30T00:57:01.415Z,0
2022-09-30T00:57:58.575Z,0
2022-09-30T00:58:58.549Z,0
2022-09-30T00:59:58.539Z,0
2022-09-30T01:00:59.111Z,0
2022-09-30T01:01:59.034Z,0
2022-09-30T01:03:01.362Z,0
2022-09-30T01:03:58.670Z,0
2022-09-30T01:04:58.551Z,0
2022-09-30T01:05:58.568Z,0
2022-09-30T01:06:58.564Z,0
2022-09-30T01:08:01.635Z,0
2022-09-30T01:09:58.668Z,0
2022-09-30T01:10:58.582Z,0
2022-09-30T01:11:58.597Z,0
2022-09-30T01:12:58.558Z,0
2022-09-30T01:14:01.498Z,0
2022-09-30T01:14:58.565Z,0
2022-09-30T01:15:59.098Z,0
2022-09-30T01:16:58.564Z,0
2022-09-30T01:17:58.721Z,0
2022-09-30T01:19:01.916Z,0
2022-09-30T01:19:58.568Z,0
2022-09-30T01:20:58.606Z,0
2022-09-30T01:21:58.582Z,0
2022-09-30T01:22:58.632Z,0
2022-09-30T01:23:58.573Z,0
2022-09-30T01:25:04.395Z,0
2022-09-30T01:25:58.649Z,0
2022-09-30T01:26:58.593Z,0
2022-09-30T01:27:58.654Z,0
2022-09-30T01:28:58.583Z,0
2022-09-30T01:30:01.436Z,0
2022-09-30T01:30:58.669Z,0
2022-09-30T01:31:59.132Z,0
2022-09-30T01:32:58.631Z,0
2022-09-30T01:33:58.583Z,0
2022-09-30T01:34:58.713Z,0
2022-09-30T01:36:01.416Z,0
2022-09-30T01:36:58.648Z,0
2022-09-30T01:37:58.602Z,0
2022-09-30T01:38:58.706Z,0
2022-09-30T01:39:58.635Z,0
2022-09-30T01:41:00.469Z,0
2022-09-30T01:41:58.614Z,0
2022-09-30T01:42:58.578Z,0
2022-09-30T01:43:58.616Z,0
2022-09-30T01:44:58.612Z,0
2022-09-30T01:45:58.628Z,0
2022-09-30T01:47:02.102Z,0
2022-09-30T01:47:58.598Z,0
2022-09-30T01:48:58.465Z,0
2022-09-30T01:49:58.615Z,0
2022-09-30T01:50:58.732Z,0
2022-09-30T01:52:01.643Z,0
2022-09-30T01:52:58.611Z,0
2022-09-30T01:53:58.624Z,0
2022-09-30T01:54:58.628Z,0
2022-09-30T01:55:58.659Z,0
2022-09-30T01:56:58.635Z,0
2022-09-30T01:58:01.729Z,0
2022-09-30T01:58:58.699Z,0
2022-09-30T01:59:58.685Z,0
2022-09-30T02:00:58.982Z,0
2022-09-30T02:01:58.894Z,0
2022-09-30T02:03:03.516Z,0
2022-09-30T02:03:58.632Z,0
2022-09-30T02:04:58.623Z,0
2022-09-30T02:05:58.656Z,0
2022-09-30T02:06:58.684Z,0
2022-09-30T02:07:58.651Z,0
2022-09-30T02:09:01.826Z,0
2022-09-30T02:10:01.740Z,0
2022-09-30T02:10:58.661Z,0
2022-09-30T02:11:58.798Z,0
2022-09-30T02:12:58.639Z,0
2022-09-30T02:14:01.746Z,0
2022-09-30T02:14:58.641Z,0
2022-09-30T02:15:59.029Z,0
2022-09-30T02:16:58.641Z,0
2022-09-30T02:17:58.663Z,0
2022-09-30T02:18:58.668Z,0
2022-09-30T02:20:07.483Z,0
2022-09-30T02:20:58.767Z,0
2022-09-30T02:21:58.674Z,0
2022-09-30T02:22:58.730Z,0
2022-09-30T02:23:58.656Z,0
2022-09-30T02:24:58.689Z,0
2022-09-30T02:25:58.704Z,0
2022-09-30T02:26:58.686Z,0
2022-09-30T02:27:58.679Z,0
2022-09-30T02:28:58.832Z,0
2022-09-30T02:30:01.739Z,0
2022-09-30T02:30:58.734Z,0
2022-09-30T02:31:59.017Z,0
2022-09-30T02:32:58.679Z,0
2022-09-30T02:33:58.693Z,0
2022-09-30T02:34:58.711Z,0
2022-09-30T02:35:58.686Z,0
2022-09-30T02:36:58.668Z,0
2022-09-30T02:37:58.694Z,0
2022-09-30T02:38:58.755Z,0
2022-09-30T02:39:58.694Z,0
2022-09-30T02:41:01.903Z,0
2022-09-30T02:41:58.835Z,0
2022-09-30T02:42:58.706Z,0
2022-09-30T02:43:58.721Z,0
2022-09-30T02:44:58.690Z,0
2022-09-30T02:46:01.700Z,0
2022-09-30T02:46:59.241Z,0
2022-09-30T02:47:58.716Z,0
2022-09-30T02:48:58.709Z,0
2022-09-30T02:49:58.856Z,0
2022-09-30T02:50:58.718Z,0
2022-09-30T02:52:01.809Z,0
2022-09-30T02:52:58.699Z,0
2022-09-30T02:53:58.702Z,0
2022-09-30T02:54:58.775Z,0
2022-09-30T02:55:58.725Z,0
2022-09-30T02:57:01.789Z,0
2022-09-30T02:57:58.727Z,0
2022-09-30T02:58:58.725Z,0
2022-09-30T03:00:00.931Z,0
2022-09-30T03:00:58.973Z,0
2022-09-30T03:02:01.965Z,0
2022-09-30T03:03:01.729Z,0
2022-09-30T03:03:58.735Z,0
2022-09-30T03:04:58.712Z,0
2022-09-30T03:05:58.730Z,0
2022-09-30T03:06:58.733Z,0
2022-09-30T03:08:01.487Z,0
2022-09-30T03:08:58.798Z,0
2022-09-30T03:09:58.782Z,0
2022-09-30T03:10:58.800Z,0
2022-09-30T03:11:58.747Z,0
2022-09-30T03:13:01.812Z,0
2022-09-30T03:13:58.838Z,0
2022-09-30T03:14:58.712Z,0
2022-09-30T03:16:02.302Z,0
2022-09-30T03:16:58.709Z,0
2022-09-30T03:17:58.736Z,0
2022-09-30T03:19:01.538Z,0
2022-09-30T03:19:58.760Z,0
2022-09-30T03:20:58.770Z,0
2022-09-30T03:21:58.743Z,0
2022-09-30T03:22:58.755Z,0
2022-09-30T03:24:01.730Z,0
2022-09-30T03:24:58.748Z,0
2022-09-30T03:25:58.763Z,0
2022-09-30T03:26:58.882Z,0
2022-09-30T03:27:58.770Z,0
2022-09-30T03:28:58.763Z,0
2022-09-30T03:30:01.588Z,0
2022-09-30T03:30:59.017Z,0
2022-09-30T03:31:58.947Z,0
2022-09-30T03:32:58.759Z,0
2022-09-30T03:33:59.789Z,0
2022-09-30T03:35:01.600Z,0
2022-09-30T03:35:58.757Z,0
2022-09-30T03:37:02.276Z,0
2022-09-30T03:37:58.786Z,0
2022-09-30T03:38:58.763Z,0
2022-09-30T03:39:58.760Z,0
2022-09-30T03:41:01.825Z,0
2022-09-30T03:41:58.795Z,0
2022-09-30T03:42:58.847Z,0
2022-09-30T03:44:04.615Z,0
2022-09-30T03:44:58.814Z,0
2022-09-30T03:46:01.531Z,0
2022-09-30T03:46:59.197Z,0
2022-09-30T03:47:58.778Z,0
2022-09-30T03:48:58.805Z,0
2022-09-30T03:49:58.771Z,0
2022-09-30T03:50:58.786Z,0
2022-09-30T03:52:03.423Z,0
2022-09-30T03:52:58.772Z,0
2022-09-30T03:53:58.781Z,0
2022-09-30T03:54:58.801Z,0
2022-09-30T03:55:58.790Z,0
2022-09-30T03:56:59.661Z,0
2022-09-30T03:57:58.788Z,0
2022-09-30T03:58:58.881Z,0
2022-09-30T03:59:58.825Z,0
2022-09-30T04:00:59.172Z,0
2022-09-30T04:01:59.070Z,0
2022-09-30T04:03:05.652Z,0
2022-09-30T04:03:58.797Z,0
2022-09-30T04:04:58.850Z,0
2022-09-30T04:05:58.855Z,0
2022-09-30T04:06:58.827Z,0
2022-09-30T04:08:01.599Z,0
2022-09-30T04:08:58.919Z,0
2022-09-30T04:09:58.916Z,0
2022-09-30T04:10:58.835Z,0
2022-09-30T04:11:58.930Z,0
2022-09-30T04:12:58.856Z,0
2022-09-30T04:14:01.951Z,0
2022-09-30T04:14:58.838Z,0
2022-09-30T04:15:59.181Z,0
2022-09-30T04:17:03.087Z,0
2022-09-30T04:17:58.812Z,0
2022-09-30T04:19:01.745Z,0
2022-09-30T04:19:58.866Z,0
2022-09-30T04:20:58.840Z,0
2022-09-30T04:21:58.880Z,0
2022-09-30T04:22:58.888Z,0
2022-09-30T04:23:58.837Z,0
2022-09-30T04:25:01.595Z,0
2022-09-30T04:25:58.860Z,0
2022-09-30T04:26:58.853Z,0
2022-09-30T04:27:58.889Z,0
2022-09-30T04:28:58.862Z,0
2022-09-30T04:30:01.902Z,0
2022-09-30T04:30:59.049Z,0
2022-09-30T04:31:59.368Z,0
2022-09-30T04:33:01.305Z,0
2022-09-30T04:33:58.816Z,0
2022-09-30T04:34:58.831Z,0
2022-09-30T04:36:01.976Z,0
2022-09-30T04:36:58.846Z,0
2022-09-30T04:37:59.157Z,0
2022-09-30T04:38:58.858Z,0
2022-09-30T04:40:02.003Z,0
2022-09-30T04:41:02.199Z,0
2022-09-30T04:41:59.138Z,0
2022-09-30T04:42:58.872Z,0
2022-09-30T04:43:58.908Z,0
2022-09-30T04:44:58.830Z,0
2022-09-30T04:45:59.295Z,0
2022-09-30T04:46:58.899Z,0
2022-09-30T04:47:58.839Z,0
2022-09-30T04:48:58.893Z,0
2022-09-30T04:49:58.843Z,0
2022-09-30T04:51:01.668Z,0
2022-09-30T04:51:58.899Z,0
2022-09-30T04:52:58.850Z,0
2022-09-30T04:53:58.871Z,0
2022-09-30T04:54:58.901Z,0
2022-09-30T04:55:58.858Z,0
2022-09-30T04:57:01.963Z,0
2022-09-30T04:58:07.729Z,0
2022-09-30T04:58:58.869Z,0
2022-09-30T04:59:59.028Z,0
2022-09-30T05:00:59.363Z,0
2022-09-30T05:01:59.347Z,0
2022-09-30T05:02:58.896Z,0
2022-09-30T05:03:58.857Z,0
2022-09-30T05:04:58.883Z,0
2022-09-30T05:05:58.858Z,0
2022-09-30T05:06:58.879Z,0
2022-09-30T05:08:01.639Z,0
2022-09-30T05:08:58.918Z,0
2022-09-30T05:09:58.931Z,0
2022-09-30T05:10:58.923Z,0
2022-09-30T05:11:58.886Z,0
2022-09-30T05:12:58.872Z,0
2022-09-30T05:13:58.903Z,0
2022-09-30T05:14:58.882Z,0
2022-09-30T05:15:59.325Z,0
2022-09-30T05:16:58.915Z,0
2022-09-30T05:17:58.924Z,0
2022-09-30T05:19:02.022Z,0
2022-09-30T05:19:58.901Z,0
2022-09-30T05:20:58.934Z,0
2022-09-30T05:21:58.905Z,0
2022-09-30T05:22:58.993Z,0
2022-09-30T05:24:01.993Z,0
2022-09-30T05:24:58.889Z,0
2022-09-30T05:25:58.885Z,0
2022-09-30T05:26:58.939Z,0
2022-09-30T05:27:58.904Z,0
2022-09-30T05:29:01.900Z,0
2022-09-30T05:30:01.703Z,0
2022-09-30T05:30:58.961Z,0
2022-09-30T05:31:59.382Z,0
2022-09-30T05:32:58.902Z,0
2022-09-30T05:34:05.049Z,0
2022-09-30T05:35:02.056Z,0
2022-09-30T05:35:58.882Z,0
2022-09-30T05:36:58.973Z,0
2022-09-30T05:37:58.911Z,0
2022-09-30T05:38:58.925Z,0
2022-09-30T05:40:01.989Z,0
2022-09-30T05:40:58.957Z,0
2022-09-30T05:41:59.075Z,0
2022-09-30T05:42:58.932Z,0
2022-09-30T05:43:58.955Z,0
2022-09-30T05:44:58.920Z,0
2022-09-30T05:46:01.968Z,0
2022-09-30T05:46:59.364Z,0
2022-09-30T05:47:58.969Z,0
2022-09-30T05:48:58.905Z,0
2022-09-30T05:50:04.540Z,0
2022-09-30T05:51:02.337Z,0
2022-09-30T05:51:58.937Z,0
2022-09-30T05:52:58.948Z,0
2022-09-30T05:53:59.035Z,0
2022-09-30T05:54:59.038Z,0
2022-09-30T05:55:58.967Z,0
2022-09-30T05:57:01.743Z,0
2022-09-30T05:57:58.969Z,0
2022-09-30T05:58:58.969Z,0
2022-09-30T05:59:58.934Z,0
2022-09-30T06:01:07.012Z,0
2022-09-30T06:02:02.546Z,0
2022-09-30T06:02:59.753Z,0
2022-09-30T06:03:58.932Z,0
2022-09-30T06:04:58.934Z,0
2022-09-30T06:05:59.012Z,0
2022-09-30T06:06:58.956Z,0
2022-09-30T06:08:02.099Z,0
2022-09-30T06:08:59.006Z,0
2022-09-30T06:09:58.986Z,0
2022-09-30T06:10:58.928Z,0
2022-09-30T06:11:58.931Z,0
2022-09-30T06:13:02.860Z,0
2022-09-30T06:13:58.994Z,0
2022-09-30T06:14:59.042Z,0
2022-09-30T06:15:59.084Z,0
2022-09-30T06:16:59.408Z,0
2022-09-30T06:17:58.979Z,0
2022-09-30T06:19:04.791Z,0
2022-09-30T06:19:58.971Z,0
2022-09-30T06:20:59.125Z,5
2022-09-30T06:21:59.074Z,5
2022-09-30T06:23:01.844Z,5
2022-09-30T06:24:02.032Z,5
2022-09-30T06:25:06.875Z,5
2022-09-30T06:25:58.970Z,5
2022-09-30T06:26:58.975Z,5
2022-09-30T06:27:58.982Z,5
2022-09-30T06:28:59.015Z,5
2022-09-30T06:30:01.727Z,5
2022-09-30T06:30:59.002Z,5
2022-09-30T06:31:59.409Z,5
2022-09-30T06:32:59.000Z,5
2022-09-30T06:33:58.990Z,5
2022-09-30T06:35:02.040Z,5
2022-09-30T06:35:58.983Z,5
2022-09-30T06:36:58.991Z,5
2022-09-30T06:37:59.027Z,5
2022-09-30T06:38:59.065Z,5
2022-09-30T06:39:59.002Z,5
2022-09-30T06:41:02.908Z,5
2022-09-30T06:41:58.969Z,5
2022-09-30T06:42:59.015Z,5
2022-09-30T06:44:18.762Z,5
2022-09-30T06:45:02.685Z,5
2022-09-30T06:46:31.133Z,5
2022-09-30T06:47:12.657Z,5
2022-09-30T06:48:09.005Z,5
2022-09-30T06:49:16.376Z,5
2022-09-30T06:49:59.645Z,5
2022-09-30T06:51:12.319Z,5
2022-09-30T06:52:02.478Z,5
2022-09-30T06:53:01.001Z,5
2022-09-30T06:54:02.603Z,5
2022-09-30T06:54:59.304Z,5
2022-09-30T06:55:59.175Z,5
2022-09-30T06:57:02.180Z,5
2022-09-30T06:57:59.083Z,5
2022-09-30T06:58:59.057Z,5
2022-09-30T06:59:59.206Z,5
2022-09-30T07:00:59.322Z,5
2022-09-30T07:01:59.258Z,5
2022-09-30T07:03:01.873Z,5
2022-09-30T07:04:03.651Z,5
2022-09-30T07:05:00.092Z,5
2022-09-30T07:05:59.013Z,5
2022-09-30T07:06:59.056Z,5
2022-09-30T07:08:01.856Z,5
2022-09-30T07:08:59.302Z,5
2022-09-30T07:10:04.432Z,5
2022-09-30T07:10:59.039Z,5
2022-09-30T07:11:59.041Z,5
2022-09-30T07:13:00.086Z,5
2022-09-30T07:13:59.052Z,10
2022-09-30T07:14:59.019Z,10
2022-09-30T07:15:59.087Z,10
2022-09-30T07:16:59.321Z,10
2022-09-30T07:17:59.101Z,10
2022-09-30T07:18:59.034Z,10
2022-09-30T07:19:59.025Z,10
2022-09-30T07:20:59.020Z,10
2022-09-30T07:21:59.043Z,10
2022-09-30T07:23:01.799Z,10
2022-09-30T07:23:59.856Z,10
2022-09-30T07:25:02.853Z,10
2022-09-30T07:25:59.213Z,10
2022-09-30T07:26:59.081Z,10
2022-09-30T07:27:59.066Z,10
2022-09-30T07:28:59.054Z,10
2022-09-30T07:30:31.786Z,10
2022-09-30T07:31:38.143Z,10
2022-09-30T07:31:59.377Z,10
2022-09-30T07:32:59.045Z,10
2022-09-30T07:33:59.088Z,10
2022-09-30T07:35:01.808Z,10
2022-09-30T07:35:59.068Z,10
2022-09-30T07:36:59.059Z,10
2022-09-30T07:37:59.063Z,10
2022-09-30T07:38:59.077Z,10
2022-09-30T07:39:59.070Z,15
2022-09-30T07:40:59.079Z,15
2022-09-30T07:41:59.088Z,15
2022-09-30T07:42:59.082Z,15
2022-09-30T07:43:59.238Z,15
2022-09-30T07:44:59.230Z,10
2022-09-30T07:46:02.439Z,10
2022-09-30T07:46:59.076Z,10
2022-09-30T07:48:02.964Z,10
2022-09-30T07:48:59.107Z,10
2022-09-30T07:49:59.116Z,10
2022-09-30T07:51:03.982Z,10
2022-09-30T07:51:59.082Z,10
2022-09-30T07:52:59.700Z,10
2022-09-30T07:53:59.117Z,10
2022-09-30T07:55:00.190Z,10
2022-09-30T07:56:01.955Z,10
2022-09-30T07:57:29.406Z,10
2022-09-30T07:59:02.088Z,15
2022-09-30T08:00:08.074Z,10
2022-09-30T08:01:01.907Z,10
2022-09-30T08:02:07.458Z,15
2022-09-30T08:02:59.238Z,10
2022-09-30T08:03:59.325Z,10
2022-09-30T08:04:59.215Z,10
2022-09-30T08:06:07.126Z,10
2022-09-30T08:07:07.246Z,10
2022-09-30T08:07:59.208Z,10
2022-09-30T08:09:08.072Z,15
2022-09-30T08:10:00.052Z,15
2022-09-30T08:11:04.434Z,20
2022-09-30T08:12:05.366Z,15
2022-09-30T08:13:10.908Z,15
2022-09-30T08:14:02.028Z,15
2022-09-30T08:14:59.315Z,15
2022-09-30T08:15:59.374Z,20
2022-09-30T08:17:05.123Z,20
2022-09-30T08:18:01.904Z,20
2022-09-30T08:18:59.154Z,20
2022-09-30T08:19:59.114Z,20
2022-09-30T08:20:59.148Z,20
2022-09-30T08:21:59.783Z,20
2022-09-30T08:22:59.116Z,15
2022-09-30T08:24:02.216Z,15
2022-09-30T08:24:59.136Z,15
2022-09-30T08:25:59.122Z,15
2022-09-30T08:26:59.699Z,15
2022-09-30T08:27:58.950Z,15
2022-09-30T08:29:01.867Z,15
2022-09-30T08:30:09.926Z,15
2022-09-30T08:30:59.171Z,15
2022-09-30T08:31:59.892Z,20
2022-09-30T08:32:59.133Z,15
2022-09-30T08:33:59.163Z,15
2022-09-30T08:35:02.174Z,15
2022-09-30T08:35:59.140Z,15
2022-09-30T08:37:10.636Z,15
2022-09-30T08:37:59.149Z,20
2022-09-30T08:38:59.156Z,15
2022-09-30T08:40:02.008Z,20
2022-09-30T08:40:59.153Z,20
2022-09-30T08:42:09.177Z,20
2022-09-30T08:43:04.311Z,20
2022-09-30T08:43:59.194Z,20
2022-09-30T08:44:59.186Z,20
2022-09-30T08:46:04.375Z,20
2022-09-30T08:47:05.393Z,20
2022-09-30T08:48:02.218Z,20
2022-09-30T08:49:03.569Z,20
2022-09-30T08:50:02.046Z,20
2022-09-30T08:51:02.242Z,20
2022-09-30T08:51:59.239Z,20
2022-09-30T08:52:59.482Z,20
2022-09-30T08:53:59.411Z,20
2022-09-30T08:55:00.105Z,20
2022-09-30T08:55:59.168Z,20
2022-09-30T08:57:02.067Z,20
2022-09-30T08:57:59.027Z,20
2022-09-30T08:58:59.195Z,20
2022-09-30T08:59:59.213Z,20
2022-09-30T09:00:59.653Z,20
2022-09-30T09:02:02.614Z,20
2022-09-30T09:02:59.460Z,20
2022-09-30T09:03:59.304Z,20
2022-09-30T09:04:59.712Z,20
2022-09-30T09:06:01.772Z,25
2022-09-30T09:06:59.243Z,25
2022-09-30T09:08:02.490Z,35
2022-09-30T09:08:59.301Z,40
2022-09-30T09:09:59.244Z,25
2022-09-30T09:10:59.328Z,25
2022-09-30T09:11:59.289Z,25
2022-09-30T09:13:04.420Z,25
2022-09-30T09:14:01.604Z,25
2022-09-30T09:14:59.211Z,20
2022-09-30T09:16:02.061Z,20
2022-09-30T09:17:00.024Z,25
2022-09-30T09:18:35.435Z,50
2022-09-30T09:19:00.844Z,45
2022-09-30T09:19:59.360Z,50
2022-09-30T09:20:59.683Z,50
2022-09-30T09:21:59.517Z,40
2022-09-30T09:22:59.318Z,40
2022-09-30T09:24:05.193Z,45
2022-09-30T09:25:04.871Z,45
2022-09-30T09:26:02.488Z,50
2022-09-30T09:26:59.289Z,45
2022-09-30T09:28:02.256Z,35
2022-09-30T09:29:03.138Z,35
2022-09-30T09:30:02.031Z,30
2022-09-30T09:30:59.295Z,30
2022-09-30T09:32:06.004Z,40
2022-09-30T09:32:59.555Z,45
2022-09-30T09:33:59.271Z,50
2022-09-30T09:35:02.831Z,50
2022-09-30T09:35:59.405Z,45
2022-09-30T09:37:00.284Z,40
2022-09-30T09:37:59.704Z,35
2022-09-30T09:38:59.298Z,40
2022-09-30T09:40:08.092Z,40
2022-09-30T09:40:59.402Z,35
2022-09-30T09:41:59.258Z,35
2022-09-30T09:42:59.293Z,35
2022-09-30T09:43:59.257Z,35
2022-09-30T09:44:59.285Z,35
2022-09-30T09:45:59.600Z,30
2022-09-30T09:46:59.299Z,30
2022-09-30T09:47:59.319Z,25
2022-09-30T09:48:59.272Z,20
2022-09-30T09:50:04.538Z,20
2022-09-30T09:50:59.285Z,25
2022-09-30T09:52:02.094Z,30
2022-09-30T09:52:59.318Z,30
2022-09-30T09:53:59.276Z,35
2022-09-30T09:54:59.456Z,30
2022-09-30T09:56:02.628Z,35
2022-09-30T09:56:59.395Z,35
2022-09-30T09:58:02.406Z,35
2022-09-30T09:58:59.718Z,35
2022-09-30T10:00:59.597Z,35
2022-09-30T10:02:06.240Z,30
2022-09-30T10:02:59.277Z,30
2022-09-30T10:03:59.546Z,30
2022-09-30T10:04:59.295Z,35
2022-09-30T10:05:59.783Z,40
2022-09-30T10:06:59.304Z,40
2022-09-30T10:08:02.074Z,40
2022-09-30T10:08:59.259Z,50
2022-09-30T10:10:02.291Z,40
2022-09-30T10:10:59.513Z,45
2022-09-30T10:11:59.398Z,40
2022-09-30T10:13:02.487Z,40
2022-09-30T10:14:01.918Z,45
2022-09-30T10:14:59.292Z,40
2022-09-30T10:15:59.691Z,55
2022-09-30T10:17:02.382Z,65
2022-09-30T10:18:02.759Z,65
2022-09-30T10:18:59.365Z,70
2022-09-30T10:19:59.542Z,70
2022-09-30T10:20:59.329Z,70
2022-09-30T10:22:04.294Z,70
2022-09-30T10:22:59.474Z,70
2022-09-30T10:24:02.891Z,70
2022-09-30T10:24:59.340Z,70
2022-09-30T10:25:59.342Z,70
2022-09-30T10:26:59.305Z,75
2022-09-30T10:27:59.748Z,70
2022-09-30T10:29:02.416Z,55
2022-09-30T10:29:59.344Z,65
2022-09-30T10:30:59.360Z,65
2022-09-30T10:32:06.000Z,70
2022-09-30T10:32:59.338Z,70
2022-09-30T10:34:02.190Z,45
2022-09-30T10:35:02.313Z,50
2022-09-30T10:35:59.342Z,55
2022-09-30T10:36:59.421Z,55
2022-09-30T10:38:00.716Z,55
2022-09-30T10:39:03.903Z,50
2022-09-30T10:40:02.205Z,45
2022-09-30T10:40:59.340Z,50
2022-09-30T10:41:59.357Z,55
2022-09-30T10:42:59.331Z,55
2022-09-30T10:43:59.367Z,40
2022-09-30T10:45:00.956Z,45
2022-09-30T10:46:37.452Z,40
2022-09-30T10:47:59.381Z,30
2022-09-30T10:48:59.356Z,35
2022-09-30T10:49:59.365Z,35
2022-09-30T10:51:03.212Z,35
2022-09-30T10:51:59.344Z,35
2022-09-30T10:52:59.363Z,35
2022-09-30T10:53:59.383Z,35
2022-09-30T10:54:59.506Z,35
2022-09-30T10:56:02.375Z,40
2022-09-30T10:57:05.020Z,40
2022-09-30T10:57:59.415Z,45
2022-09-30T10:58:59.498Z,55
2022-09-30T10:59:59.503Z,55
2022-09-30T11:00:59.780Z,60
2022-09-30T11:02:10.671Z,60
2022-09-30T11:03:03.167Z,65
2022-09-30T11:03:59.710Z,60
2022-09-30T11:04:59.407Z,55
2022-09-30T11:05:59.391Z,55
2022-09-30T11:07:02.286Z,50
2022-09-30T11:07:59.379Z,45
2022-09-30T11:08:59.448Z,50
2022-09-30T11:09:59.565Z,55
2022-09-30T11:11:09.648Z,45
2022-09-30T11:11:59.596Z,40
2022-09-30T11:13:02.455Z,50
2022-09-30T11:13:59.767Z,45
2022-09-30T11:15:00.465Z,50
2022-09-30T11:15:59.731Z,45
2022-09-30T11:17:02.534Z,35
2022-09-30T11:18:02.290Z,50
2022-09-30T11:18:59.448Z,55
2022-09-30T11:19:59.428Z,60
2022-09-30T11:20:59.460Z,70
2022-09-30T11:22:04.744Z,55
2022-09-30T11:22:59.344Z,40
2022-09-30T11:24:02.883Z,35
2022-09-30T11:24:59.580Z,35
2022-09-30T11:26:02.190Z,30
2022-09-30T11:26:59.460Z,30
2022-09-30T11:27:59.859Z,25
2022-09-30T11:29:05.407Z,30
2022-09-30T11:29:59.460Z,35
2022-09-30T11:31:01.206Z,30
2022-09-30T11:31:59.954Z,30
2022-09-30T11:32:59.435Z,25
2022-09-30T11:33:59.423Z,30
2022-09-30T11:35:02.561Z,25
2022-09-30T11:35:59.452Z,25
2022-09-30T11:37:00.215Z,25
2022-09-30T11:37:59.451Z,35
2022-09-30T11:38:59.437Z,35
2022-09-30T11:40:09.429Z,35
2022-09-30T11:40:59.451Z,35
2022-09-30T11:41:59.474Z,50
2022-09-30T11:43:05.297Z,55
2022-09-30T11:43:59.456Z,55
2022-09-30T11:45:00.022Z,55
2022-09-30T11:46:03.144Z,50
2022-09-30T11:47:01.921Z,50
2022-09-30T11:47:59.815Z,45
2022-09-30T11:48:59.594Z,35
2022-09-30T11:49:59.464Z,40
2022-09-30T11:51:02.863Z,35
2022-09-30T11:51:59.462Z,40
2022-09-30T11:53:02.576Z,40
2022-09-30T11:53:59.694Z,35
2022-09-30T11:54:59.545Z,50
2022-09-30T11:55:59.551Z,55
2022-09-30T11:57:02.268Z,40
2022-09-30T11:58:05.260Z,40
2022-09-30T11:58:59.507Z,35
2022-09-30T11:59:59.684Z,30
2022-09-30T12:00:59.547Z,30
2022-09-30T12:02:03.141Z,30
2022-09-30T12:02:59.907Z,30
2022-09-30T12:03:59.531Z,35
2022-09-30T12:04:59.553Z,35
2022-09-30T12:06:59.673Z,35
2022-09-30T12:07:59.512Z,35
2022-09-30T12:08:59.550Z,35
2022-09-30T12:09:59.602Z,25
2022-09-30T12:11:01.795Z,25
2022-09-30T12:12:02.352Z,25
2022-09-30T12:12:59.788Z,25
2022-09-30T12:13:59.581Z,25
2022-09-30T12:15:00.642Z,25
2022-09-30T12:15:59.677Z,25
2022-09-30T12:16:59.810Z,25
2022-09-30T12:17:59.557Z,30
2022-09-30T12:18:59.557Z,35
2022-09-30T12:19:59.790Z,35
2022-09-30T12:20:59.653Z,35
2022-09-30T12:21:59.419Z,35
2022-09-30T12:22:59.544Z,35
2022-09-30T12:23:59.560Z,35
2022-09-30T12:25:02.363Z,35
2022-09-30T12:26:02.414Z,35
2022-09-30T12:26:59.608Z,30
2022-09-30T12:28:00.020Z,25
2022-09-30T12:29:06.018Z,25
2022-09-30T12:30:02.465Z,25
2022-09-30T12:30:59.565Z,25
2022-09-30T12:31:59.873Z,25
2022-09-30T12:32:59.526Z,25
2022-09-30T12:33:59.460Z,25
2022-09-30T12:35:00.683Z,25
2022-09-30T12:35:59.789Z,30
2022-09-30T12:37:05.272Z,25
2022-09-30T12:38:05.789Z,25
2022-09-30T12:38:59.691Z,30
2022-09-30T12:40:02.705Z,30
2022-09-30T12:41:04.784Z,25
2022-09-30T12:42:02.662Z,25
2022-09-30T12:42:59.587Z,25
2022-09-30T12:43:59.636Z,25
2022-09-30T12:45:02.636Z,25
2022-09-30T12:46:00.064Z,30
2022-09-30T12:46:59.722Z,30
2022-09-30T12:47:59.564Z,30
2022-09-30T12:49:02.621Z,25
2022-09-30T12:49:59.714Z,30
2022-09-30T12:51:02.402Z,30
2022-09-30T12:51:59.574Z,35
2022-09-30T12:52:59.850Z,30
2022-09-30T12:53:59.613Z,40
2022-09-30T12:55:00.639Z,40
2022-09-30T12:56:02.370Z,55
2022-09-30T12:56:59.592Z,40
2022-09-30T12:57:59.570Z,45
2022-09-30T12:59:02.094Z,55
2022-09-30T12:59:59.622Z,35
2022-09-30T13:01:00.686Z,40
2022-09-30T13:02:03.027Z,45
2022-09-30T13:03:02.204Z,35
2022-09-30T13:03:59.618Z,50
2022-09-30T13:04:59.574Z,55
2022-09-30T13:05:59.635Z,35
2022-09-30T13:07:00.655Z,45
2022-09-30T13:07:59.613Z,35
2022-09-30T13:09:02.403Z,30
2022-09-30T13:09:59.630Z,35
2022-09-30T13:10:59.645Z,25
2022-09-30T13:11:59.664Z,35
2022-09-30T13:12:59.651Z,35
2022-09-30T13:14:02.623Z,45
2022-09-30T13:14:59.609Z,35
2022-09-30T13:15:59.718Z,25
2022-09-30T13:17:02.810Z,20
2022-09-30T13:17:59.812Z,20
2022-09-30T13:18:59.722Z,20
2022-09-30T13:20:02.681Z,25
2022-09-30T13:21:02.399Z,25
2022-09-30T13:22:01.118Z,25
2022-09-30T13:23:00.787Z,25
2022-09-30T13:23:59.626Z,25
2022-09-30T13:25:02.647Z,25
2022-09-30T13:25:59.636Z,25
2022-09-30T13:27:02.663Z,30
2022-09-30T13:27:59.933Z,40
2022-09-30T13:28:59.843Z,50
2022-09-30T13:29:59.634Z,45
2022-09-30T13:31:03.407Z,40
2022-09-30T13:32:00.050Z,45
2022-09-30T13:32:59.699Z,35
2022-09-30T13:33:59.652Z,30
2022-09-30T13:34:59.708Z,40
2022-09-30T13:36:02.812Z,35
2022-09-30T13:36:59.641Z,35
2022-09-30T13:37:59.641Z,35
2022-09-30T13:38:59.683Z,30
2022-09-30T13:39:59.795Z,50
2022-09-30T13:41:12.526Z,35
2022-09-30T13:42:02.695Z,50
2022-09-30T13:42:59.686Z,50
2022-09-30T13:43:59.664Z,50
2022-09-30T13:45:04.607Z,50
2022-09-30T13:45:59.995Z,35
2022-09-30T13:47:02.516Z,30
2022-09-30T13:47:59.677Z,35
2022-09-30T13:48:59.776Z,35
2022-09-30T13:50:01.940Z,45
2022-09-30T13:50:59.698Z,35
2022-09-30T13:51:59.706Z,35
2022-09-30T13:52:59.666Z,35
2022-09-30T13:53:59.703Z,40
2022-09-30T13:54:59.727Z,40
2022-09-30T13:55:59.723Z,40
2022-09-30T13:56:59.777Z,35
2022-09-30T13:57:59.736Z,35
2022-09-30T13:58:59.689Z,35
2022-09-30T13:59:59.680Z,35
2022-09-30T14:01:00.163Z,35
2022-09-30T14:01:59.726Z,25
2022-09-30T14:02:59.731Z,25
2022-09-30T14:04:00.260Z,25
2022-09-30T14:04:59.767Z,25
2022-09-30T14:05:59.709Z,35
2022-09-30T14:06:59.746Z,30
2022-09-30T14:07:59.761Z,30
2022-09-30T14:08:59.702Z,30
2022-09-30T14:09:59.569Z,35
2022-09-30T14:10:59.737Z,30
2022-09-30T14:11:59.566Z,40
2022-09-30T14:12:59.879Z,30
2022-09-30T14:14:02.737Z,35
2022-09-30T14:14:59.709Z,35
2022-09-30T14:16:00.083Z,30
2022-09-30T14:16:59.742Z,35
2022-09-30T14:17:59.713Z,35
2022-09-30T14:18:59.718Z,35
2022-09-30T14:19:59.741Z,40
2022-09-30T14:20:59.752Z,40
2022-09-30T14:21:59.750Z,45
2022-09-30T14:22:59.768Z,45
2022-09-30T14:23:59.610Z,45
2022-09-30T14:25:02.487Z,45
2022-09-30T14:25:59.747Z,40
2022-09-30T14:26:59.770Z,35
2022-09-30T14:28:00.124Z,40
2022-09-30T14:28:59.981Z,40
2022-09-30T14:30:02.599Z,40
2022-09-30T14:30:59.914Z,40
2022-09-30T14:32:00.231Z,40
2022-09-30T14:32:59.787Z,40
2022-09-30T14:33:59.772Z,40
2022-09-30T14:34:59.776Z,35
2022-09-30T14:36:03.751Z,35
2022-09-30T14:36:59.818Z,35
2022-09-30T14:38:59.795Z,35
2022-09-30T14:39:59.779Z,35